sensor_id;sensor_type;location;lat;lon;timestamp;temperature;humidity
35111;DHT22;21290;50.158;8.658;2022-12-19T00:01:32;-1.50;99.90
35111;DHT22;21290;50.158;8.658;2022-12-19T00:04:01;-1.50;99.90
35111;DHT22;21290;50.158;8.658;2022-12-19T00:06:34;-1.50;99.90
35111;DHT22;21290;50.158;8.658;2022-12-19T00:09:00;-1.50;99.90
35111;DHT22;21290;50.158;8.658;2022-12-19T00:11:27;-1.50;99.90
35111;DHT22;21290;50.158;8.658;2022-12-19T00:13:54;-1.40;99.90
35111;DHT22;21290;50.158;8.658;2022-12-19T00:16:22;-1.50;99.90
35111;DHT22;21290;50.158;8.658;2022-12-19T00:18:49;-1.50;99.90
35111;DHT22;21290;50.158;8.658;2022-12-19T00:21:22;-1.50;99.90
35111;DHT22;21290;50.158;8.658;2022-12-19T00:23:49;-1.50;99.90
35111;DHT22;21290;50.158;8.658;2022-12-19T00:26:26;-1.50;99.90
35111;DHT22;21290;50.158;8.658;2022-12-19T00:28:56;-1.50;99.90
35111;DHT22;21290;50.158;8.658;2022-12-19T00:31:24;-1.50;99.90
35111;DHT22;21290;50.158;8.658;2022-12-19T00:33:51;-1.50;99.90
35111;DHT22;21290;50.158;8.658;2022-12-19T00:36:19;-1.50;99.90
35111;DHT22;21290;50.158;8.658;2022-12-19T00:38:48;-1.50;99.90
35111;DHT22;21290;50.158;8.658;2022-12-19T00:41:18;-1.40;99.90
35111;DHT22;21290;50.158;8.658;2022-12-19T00:43:45;-1.40;99.90
35111;DHT22;21290;50.158;8.658;2022-12-19T00:46:12;-1.40;99.90
35111;DHT22;21290;50.158;8.658;2022-12-19T00:48:40;-1.40;99.90
35111;DHT22;21290;50.158;8.658;2022-12-19T00:51:09;-1.30;99.90
35111;DHT22;21290;50.158;8.658;2022-12-19T00:53:35;-1.30;99.90
35111;DHT22;21290;50.158;8.658;2022-12-19T00:56:06;-1.30;99.90
35111;DHT22;21290;50.158;8.658;2022-12-19T00:58:33;-1.30;99.90
35111;DHT22;21290;50.158;8.658;2022-12-19T01:01:08;-1.30;99.90
35111;DHT22;21290;50.158;8.658;2022-12-19T01:03:35;-1.30;99.90
35111;DHT22;21290;50.158;8.658;2022-12-19T01:06:01;-1.40;99.90
35111;DHT22;21290;50.158;8.658;2022-12-19T01:08:28;-1.30;99.90
35111;DHT22;21290;50.158;8.658;2022-12-19T01:10:56;-1.30;99.90
35111;DHT22;21290;50.158;8.658;2022-12-19T01:13:23;-1.30;99.90
35111;DHT22;21290;50.158;8.658;2022-12-19T01:15:50;-1.30;99.90
35111;DHT22;21290;50.158;8.658;2022-12-19T01:18:17;-1.30;99.90
35111;DHT22;21290;50.158;8.658;2022-12-19T01:20:44;-1.30;99.90
35111;DHT22;21290;50.158;8.658;2022-12-19T01:23:13;-1.20;99.90
35111;DHT22;21290;50.158;8.658;2022-12-19T01:25:41;-1.20;99.90
35111;DHT22;21290;50.158;8.658;2022-12-19T01:28:12;-1.20;99.90
35111;DHT22;21290;50.158;8.658;2022-12-19T01:30:40;-1.30;99.90
35111;DHT22;21290;50.158;8.658;2022-12-19T01:33:08;-1.30;99.90
35111;DHT22;21290;50.158;8.658;2022-12-19T01:35:35;-1.30;99.90
35111;DHT22;21290;50.158;8.658;2022-12-19T01:38:02;-1.30;99.90
35111;DHT22;21290;50.158;8.658;2022-12-19T01:40:34;-1.20;99.90
35111;DHT22;21290;50.158;8.658;2022-12-19T01:43:01;-1.20;99.90
35111;DHT22;21290;50.158;8.658;2022-12-19T01:45:31;-1.20;99.90
35111;DHT22;21290;50.158;8.658;2022-12-19T01:48:06;-1.20;99.90
35111;DHT22;21290;50.158;8.658;2022-12-19T01:50:37;-1.20;99.90
35111;DHT22;21290;50.158;8.658;2022-12-19T01:53:09;-1.20;99.90
35111;DHT22;21290;50.158;8.658;2022-12-19T01:55:37;-1.20;99.90
35111;DHT22;21290;50.158;8.658;2022-12-19T01:58:04;-1.20;99.90
35111;DHT22;21290;50.158;8.658;2022-12-19T02:00:31;-1.10;99.90
35111;DHT22;21290;50.158;8.658;2022-12-19T02:03:06;-1.00;99.90
35111;DHT22;21290;50.158;8.658;2022-12-19T02:05:37;-1.00;99.90
35111;DHT22;21290;50.158;8.658;2022-12-19T02:08:04;-1.00;99.90
35111;DHT22;21290;50.158;8.658;2022-12-19T02:10:31;-0.90;99.90
35111;DHT22;21290;50.158;8.658;2022-12-19T02:12:58;-0.90;99.90
35111;DHT22;21290;50.158;8.658;2022-12-19T02:15:25;-0.90;99.90
35111;DHT22;21290;50.158;8.658;2022-12-19T02:18:03;-0.90;99.90
35111;DHT22;21290;50.158;8.658;2022-12-19T02:25:55;-0.90;99.90
35111;DHT22;21290;50.158;8.658;2022-12-19T02:28:46;-1.00;99.90
35111;DHT22;21290;50.158;8.658;2022-12-19T02:33:53;-1.00;99.90
35111;DHT22;21290;50.158;8.658;2022-12-19T02:36:30;-1.00;99.90
35111;DHT22;21290;50.158;8.658;2022-12-19T02:39:06;-1.10;99.90
35111;DHT22;21290;50.158;8.658;2022-12-19T02:41:38;-1.20;99.90
35111;DHT22;21290;50.158;8.658;2022-12-19T02:44:12;-1.20;99.90
35111;DHT22;21290;50.158;8.658;2022-12-19T02:46:40;-1.20;99.90
35111;DHT22;21290;50.158;8.658;2022-12-19T02:49:10;-1.30;99.90
35111;DHT22;21290;50.158;8.658;2022-12-19T02:51:41;-1.30;99.90
35111;DHT22;21290;50.158;8.658;2022-12-19T02:54:08;-1.30;99.90
35111;DHT22;21290;50.158;8.658;2022-12-19T02:56:41;-1.30;99.90
35111;DHT22;21290;50.158;8.658;2022-12-19T02:59:17;-1.40;99.90
35111;DHT22;21290;50.158;8.658;2022-12-19T03:02:02;-1.30;99.90
35111;DHT22;21290;50.158;8.658;2022-12-19T03:04:34;-1.40;99.90
35111;DHT22;21290;50.158;8.658;2022-12-19T03:07:20;-1.40;99.90
35111;DHT22;21290;50.158;8.658;2022-12-19T03:09:50;-1.40;99.90
35111;DHT22;21290;50.158;8.658;2022-12-19T03:12:22;-1.40;99.90
35111;DHT22;21290;50.158;8.658;2022-12-19T03:14:49;-1.30;99.90
35111;DHT22;21290;50.158;8.658;2022-12-19T03:17:17;-1.30;99.90
35111;DHT22;21290;50.158;8.658;2022-12-19T03:19:44;-1.30;99.90
35111;DHT22;21290;50.158;8.658;2022-12-19T03:22:11;-1.30;99.90
35111;DHT22;21290;50.158;8.658;2022-12-19T03:24:38;-1.30;99.90
35111;DHT22;21290;50.158;8.658;2022-12-19T03:27:10;-1.20;99.90
35111;DHT22;21290;50.158;8.658;2022-12-19T03:29:46;-1.20;99.90
35111;DHT22;21290;50.158;8.658;2022-12-19T03:32:14;-1.20;99.90
35111;DHT22;21290;50.158;8.658;2022-12-19T03:34:46;-1.20;99.90
35111;DHT22;21290;50.158;8.658;2022-12-19T03:37:17;-1.20;99.90
35111;DHT22;21290;50.158;8.658;2022-12-19T03:39:47;-1.20;99.90
35111;DHT22;21290;50.158;8.658;2022-12-19T03:42:15;-1.20;99.90
35111;DHT22;21290;50.158;8.658;2022-12-19T03:45:02;-1.10;99.90
35111;DHT22;21290;50.158;8.658;2022-12-19T03:47:31;-1.10;99.90
35111;DHT22;21290;50.158;8.658;2022-12-19T03:49:58;-1.10;99.90
35111;DHT22;21290;50.158;8.658;2022-12-19T03:52:30;-1.10;99.90
35111;DHT22;21290;50.158;8.658;2022-12-19T03:55:05;-1.10;99.90
35111;DHT22;21290;50.158;8.658;2022-12-19T03:57:35;-1.10;99.90
35111;DHT22;21290;50.158;8.658;2022-12-19T04:03:02;-1.00;99.90
35111;DHT22;21290;50.158;8.658;2022-12-19T04:05:30;-1.00;99.90
35111;DHT22;21290;50.158;8.658;2022-12-19T04:07:59;-1.00;99.90
35111;DHT22;21290;50.158;8.658;2022-12-19T04:10:28;-1.00;99.90
35111;DHT22;21290;50.158;8.658;2022-12-19T04:12:59;-1.00;99.90
35111;DHT22;21290;50.158;8.658;2022-12-19T04:18:21;-0.90;99.90
35111;DHT22;21290;50.158;8.658;2022-12-19T04:20:49;-0.90;99.90
35111;DHT22;21290;50.158;8.658;2022-12-19T04:23:22;-0.90;99.90
35111;DHT22;21290;50.158;8.658;2022-12-19T04:25:51;-0.90;99.90
35111;DHT22;21290;50.158;8.658;2022-12-19T04:28:23;-0.90;99.90
35111;DHT22;21290;50.158;8.658;2022-12-19T04:30:50;-0.90;99.90
35111;DHT22;21290;50.158;8.658;2022-12-19T04:33:17;-0.80;99.90
35111;DHT22;21290;50.158;8.658;2022-12-19T04:35:44;-0.80;99.90
35111;DHT22;21290;50.158;8.658;2022-12-19T04:38:11;-0.80;99.90
35111;DHT22;21290;50.158;8.658;2022-12-19T04:40:37;-0.80;99.90
35111;DHT22;21290;50.158;8.658;2022-12-19T04:43:07;-0.80;99.90
35111;DHT22;21290;50.158;8.658;2022-12-19T04:45:34;-0.80;99.90
35111;DHT22;21290;50.158;8.658;2022-12-19T04:48:01;-0.80;99.90
35111;DHT22;21290;50.158;8.658;2022-12-19T04:50:28;-0.90;99.90
35111;DHT22;21290;50.158;8.658;2022-12-19T04:52:55;-0.90;99.90
35111;DHT22;21290;50.158;8.658;2022-12-19T04:55:22;-0.80;99.90
35111;DHT22;21290;50.158;8.658;2022-12-19T04:57:49;-0.80;99.90
35111;DHT22;21290;50.158;8.658;2022-12-19T05:00:15;-0.80;99.90
35111;DHT22;21290;50.158;8.658;2022-12-19T05:02:42;-0.80;99.90
35111;DHT22;21290;50.158;8.658;2022-12-19T05:05:09;-0.70;99.90
35111;DHT22;21290;50.158;8.658;2022-12-19T05:07:35;-0.70;99.90
35111;DHT22;21290;50.158;8.658;2022-12-19T05:10:02;-0.60;99.90
35111;DHT22;21290;50.158;8.658;2022-12-19T05:12:29;-0.60;99.90
35111;DHT22;21290;50.158;8.658;2022-12-19T05:14:55;-0.60;99.90
35111;DHT22;21290;50.158;8.658;2022-12-19T05:17:22;-0.60;99.90
35111;DHT22;21290;50.158;8.658;2022-12-19T05:19:49;-0.60;99.90
35111;DHT22;21290;50.158;8.658;2022-12-19T05:22:15;-0.60;99.90
35111;DHT22;21290;50.158;8.658;2022-12-19T05:24:42;-0.50;99.90
35111;DHT22;21290;50.158;8.658;2022-12-19T05:27:08;-0.50;99.90
35111;DHT22;21290;50.158;8.658;2022-12-19T05:29:35;-0.50;99.90
35111;DHT22;21290;50.158;8.658;2022-12-19T05:32:02;-0.40;99.90
35111;DHT22;21290;50.158;8.658;2022-12-19T05:34:28;-0.40;99.90
35111;DHT22;21290;50.158;8.658;2022-12-19T05:36:55;-0.40;99.90
35111;DHT22;21290;50.158;8.658;2022-12-19T05:39:22;-0.40;99.90
35111;DHT22;21290;50.158;8.658;2022-12-19T05:41:48;-0.40;99.90
35111;DHT22;21290;50.158;8.658;2022-12-19T05:44:15;-0.40;99.90
35111;DHT22;21290;50.158;8.658;2022-12-19T05:46:42;-0.40;99.90
35111;DHT22;21290;50.158;8.658;2022-12-19T05:49:08;-0.40;99.90
35111;DHT22;21290;50.158;8.658;2022-12-19T05:51:35;-0.40;99.90
35111;DHT22;21290;50.158;8.658;2022-12-19T05:54:02;-0.40;99.90
35111;DHT22;21290;50.158;8.658;2022-12-19T05:56:29;-0.40;99.90
35111;DHT22;21290;50.158;8.658;2022-12-19T05:58:55;-0.30;99.90
35111;DHT22;21290;50.158;8.658;2022-12-19T06:01:23;-0.30;99.90
35111;DHT22;21290;50.158;8.658;2022-12-19T06:03:50;-0.30;99.90
35111;DHT22;21290;50.158;8.658;2022-12-19T06:06:18;-0.20;99.90
35111;DHT22;21290;50.158;8.658;2022-12-19T06:08:45;-0.20;99.90
35111;DHT22;21290;50.158;8.658;2022-12-19T06:11:12;-0.10;99.90
35111;DHT22;21290;50.158;8.658;2022-12-19T06:13:39;0.00;99.90
35111;DHT22;21290;50.158;8.658;2022-12-19T06:16:07;-0.10;99.90
35111;DHT22;21290;50.158;8.658;2022-12-19T06:18:35;0.00;99.90
35111;DHT22;21290;50.158;8.658;2022-12-19T06:21:12;-0.10;99.90
35111;DHT22;21290;50.158;8.658;2022-12-19T06:23:40;0.00;99.90
35111;DHT22;21290;50.158;8.658;2022-12-19T06:26:07;0.00;99.90
35111;DHT22;21290;50.158;8.658;2022-12-19T06:28:38;-0.10;99.90
35111;DHT22;21290;50.158;8.658;2022-12-19T06:31:05;-0.10;99.90
35111;DHT22;21290;50.158;8.658;2022-12-19T06:33:33;0.00;99.90
35111;DHT22;21290;50.158;8.658;2022-12-19T06:36:01;0.00;99.90
35111;DHT22;21290;50.158;8.658;2022-12-19T06:38:28;0.00;99.90
35111;DHT22;21290;50.158;8.658;2022-12-19T06:40:55;0.00;99.90
35111;DHT22;21290;50.158;8.658;2022-12-19T06:43:40;0.00;99.90
35111;DHT22;21290;50.158;8.658;2022-12-19T06:46:07;0.00;99.90
35111;DHT22;21290;50.158;8.658;2022-12-19T06:48:34;0.00;99.90
35111;DHT22;21290;50.158;8.658;2022-12-19T06:51:00;0.00;99.90
35111;DHT22;21290;50.158;8.658;2022-12-19T06:53:27;0.00;99.90
35111;DHT22;21290;50.158;8.658;2022-12-19T06:55:55;0.00;99.90
35111;DHT22;21290;50.158;8.658;2022-12-19T06:58:22;0.00;99.90
35111;DHT22;21290;50.158;8.658;2022-12-19T07:00:50;0.00;99.90
35111;DHT22;21290;50.158;8.658;2022-12-19T07:03:18;0.00;99.90
35111;DHT22;21290;50.158;8.658;2022-12-19T07:05:46;0.00;99.90
35111;DHT22;21290;50.158;8.658;2022-12-19T07:08:13;0.00;99.90
35111;DHT22;21290;50.158;8.658;2022-12-19T07:10:40;0.00;99.90
35111;DHT22;21290;50.158;8.658;2022-12-19T07:13:07;0.00;99.90
35111;DHT22;21290;50.158;8.658;2022-12-19T07:15:33;0.00;99.90
35111;DHT22;21290;50.158;8.658;2022-12-19T07:18:00;0.00;99.90
35111;DHT22;21290;50.158;8.658;2022-12-19T07:20:29;0.00;99.90
35111;DHT22;21290;50.158;8.658;2022-12-19T07:22:56;0.00;99.90
35111;DHT22;21290;50.158;8.658;2022-12-19T07:25:23;0.10;99.90
35111;DHT22;21290;50.158;8.658;2022-12-19T07:27:50;0.10;99.90
35111;DHT22;21290;50.158;8.658;2022-12-19T07:30:17;0.10;99.90
35111;DHT22;21290;50.158;8.658;2022-12-19T07:32:45;0.10;99.90
35111;DHT22;21290;50.158;8.658;2022-12-19T07:35:11;0.10;99.90
35111;DHT22;21290;50.158;8.658;2022-12-19T07:37:38;0.00;99.90
35111;DHT22;21290;50.158;8.658;2022-12-19T07:40:05;0.10;99.90
35111;DHT22;21290;50.158;8.658;2022-12-19T07:42:32;0.10;99.90
35111;DHT22;21290;50.158;8.658;2022-12-19T07:44:59;0.10;99.90
35111;DHT22;21290;50.158;8.658;2022-12-19T07:47:26;0.10;99.90
35111;DHT22;21290;50.158;8.658;2022-12-19T07:49:53;0.10;99.90
35111;DHT22;21290;50.158;8.658;2022-12-19T07:52:20;0.10;99.90
35111;DHT22;21290;50.158;8.658;2022-12-19T07:54:46;0.10;99.90
35111;DHT22;21290;50.158;8.658;2022-12-19T07:57:13;0.20;99.90
35111;DHT22;21290;50.158;8.658;2022-12-19T07:59:39;0.20;99.90
35111;DHT22;21290;50.158;8.658;2022-12-19T08:02:06;0.20;99.90
35111;DHT22;21290;50.158;8.658;2022-12-19T08:04:33;0.20;99.90
35111;DHT22;21290;50.158;8.658;2022-12-19T08:07:00;0.20;99.90
35111;DHT22;21290;50.158;8.658;2022-12-19T08:09:27;0.20;99.90
35111;DHT22;21290;50.158;8.658;2022-12-19T08:11:54;0.20;99.90
35111;DHT22;21290;50.158;8.658;2022-12-19T08:14:20;0.20;99.90
35111;DHT22;21290;50.158;8.658;2022-12-19T08:16:47;0.30;99.90
35111;DHT22;21290;50.158;8.658;2022-12-19T08:19:34;0.40;99.90
35111;DHT22;21290;50.158;8.658;2022-12-19T08:22:00;0.40;99.90
35111;DHT22;21290;50.158;8.658;2022-12-19T08:24:27;0.40;99.90
35111;DHT22;21290;50.158;8.658;2022-12-19T08:26:53;0.40;99.90
35111;DHT22;21290;50.158;8.658;2022-12-19T08:29:20;0.40;99.90
35111;DHT22;21290;50.158;8.658;2022-12-19T08:31:47;0.40;99.90
35111;DHT22;21290;50.158;8.658;2022-12-19T08:34:13;0.40;99.90
35111;DHT22;21290;50.158;8.658;2022-12-19T08:36:40;0.40;99.90
35111;DHT22;21290;50.158;8.658;2022-12-19T08:39:07;0.40;99.90
35111;DHT22;21290;50.158;8.658;2022-12-19T08:41:33;0.50;99.90
35111;DHT22;21290;50.158;8.658;2022-12-19T08:44:00;0.50;99.90
35111;DHT22;21290;50.158;8.658;2022-12-19T08:46:27;0.60;99.90
35111;DHT22;21290;50.158;8.658;2022-12-19T08:48:55;0.60;99.90
35111;DHT22;21290;50.158;8.658;2022-12-19T08:51:21;0.60;99.90
35111;DHT22;21290;50.158;8.658;2022-12-19T08:53:48;0.60;99.90
35111;DHT22;21290;50.158;8.658;2022-12-19T08:56:15;0.60;99.90
35111;DHT22;21290;50.158;8.658;2022-12-19T08:58:43;0.60;99.90
35111;DHT22;21290;50.158;8.658;2022-12-19T09:01:11;0.60;99.90
35111;DHT22;21290;50.158;8.658;2022-12-19T09:03:39;0.60;99.90
35111;DHT22;21290;50.158;8.658;2022-12-19T09:06:25;0.70;99.90
35111;DHT22;21290;50.158;8.658;2022-12-19T09:08:52;0.70;99.90
35111;DHT22;21290;50.158;8.658;2022-12-19T09:11:25;0.70;99.90
35111;DHT22;21290;50.158;8.658;2022-12-19T09:13:54;0.70;99.90
35111;DHT22;21290;50.158;8.658;2022-12-19T09:16:21;0.70;99.90
35111;DHT22;21290;50.158;8.658;2022-12-19T09:18:49;0.70;99.90
35111;DHT22;21290;50.158;8.658;2022-12-19T09:21:17;0.70;99.90
35111;DHT22;21290;50.158;8.658;2022-12-19T09:23:51;0.70;99.90
35111;DHT22;21290;50.158;8.658;2022-12-19T09:26:18;0.70;99.90
35111;DHT22;21290;50.158;8.658;2022-12-19T09:28:46;0.70;99.90
35111;DHT22;21290;50.158;8.658;2022-12-19T09:31:14;0.80;99.90
35111;DHT22;21290;50.158;8.658;2022-12-19T09:33:41;0.80;99.90
35111;DHT22;21290;50.158;8.658;2022-12-19T09:36:12;0.80;99.90
35111;DHT22;21290;50.158;8.658;2022-12-19T09:38:40;0.80;99.90
35111;DHT22;21290;50.158;8.658;2022-12-19T09:46:32;0.80;99.90
35111;DHT22;21290;50.158;8.658;2022-12-19T09:49:09;0.80;99.90
35111;DHT22;21290;50.158;8.658;2022-12-19T09:51:39;0.80;99.90
35111;DHT22;21290;50.158;8.658;2022-12-19T09:54:21;0.80;99.90
35111;DHT22;21290;50.158;8.658;2022-12-19T09:56:50;0.80;99.90
35111;DHT22;21290;50.158;8.658;2022-12-19T09:59:29;0.80;99.90
35111;DHT22;21290;50.158;8.658;2022-12-19T10:02:29;0.80;99.90
35111;DHT22;21290;50.158;8.658;2022-12-19T10:05:08;0.90;99.90
35111;DHT22;21290;50.158;8.658;2022-12-19T10:07:57;0.90;99.90
35111;DHT22;21290;50.158;8.658;2022-12-19T10:15:51;1.00;99.90
35111;DHT22;21290;50.158;8.658;2022-12-19T10:18:59;1.00;99.90
35111;DHT22;21290;50.158;8.658;2022-12-19T10:21:33;1.00;99.90
35111;DHT22;21290;50.158;8.658;2022-12-19T10:27:03;1.10;99.90
35111;DHT22;21290;50.158;8.658;2022-12-19T10:32:08;1.00;99.90
35111;DHT22;21290;50.158;8.658;2022-12-19T10:34:38;1.10;99.90
35111;DHT22;21290;50.158;8.658;2022-12-19T10:37:26;1.10;99.90
35111;DHT22;21290;50.158;8.658;2022-12-19T10:40:14;1.10;99.90
35111;DHT22;21290;50.158;8.658;2022-12-19T10:45:47;1.10;99.90
35111;DHT22;21290;50.158;8.658;2022-12-19T10:48:15;1.10;99.90
35111;DHT22;21290;50.158;8.658;2022-12-19T10:50:43;1.10;99.90
35111;DHT22;21290;50.158;8.658;2022-12-19T10:53:11;1.10;99.90
35111;DHT22;21290;50.158;8.658;2022-12-19T11:01:05;1.20;99.90
35111;DHT22;21290;50.158;8.658;2022-12-19T11:03:35;1.20;99.90
35111;DHT22;21290;50.158;8.658;2022-12-19T11:06:02;1.30;99.90
35111;DHT22;21290;50.158;8.658;2022-12-19T11:08:30;1.30;99.90
35111;DHT22;21290;50.158;8.658;2022-12-19T11:13:50;1.30;99.90
35111;DHT22;21290;50.158;8.658;2022-12-19T11:16:37;1.40;99.90
35111;DHT22;21290;50.158;8.658;2022-12-19T11:19:26;1.40;99.90
35111;DHT22;21290;50.158;8.658;2022-12-19T11:22:14;1.40;99.90
35111;DHT22;21290;50.158;8.658;2022-12-19T11:25:02;1.50;99.90
35111;DHT22;21290;50.158;8.658;2022-12-19T11:27:49;1.60;99.90
35111;DHT22;21290;50.158;8.658;2022-12-19T11:30:35;1.60;99.90
35111;DHT22;21290;50.158;8.658;2022-12-19T11:33:22;1.50;99.90
35111;DHT22;21290;50.158;8.658;2022-12-19T11:35:53;1.60;99.90
35111;DHT22;21290;50.158;8.658;2022-12-19T11:38:25;1.60;99.90
35111;DHT22;21290;50.158;8.658;2022-12-19T11:40:55;1.60;99.90
35111;DHT22;21290;50.158;8.658;2022-12-19T11:43:30;1.60;99.90
35111;DHT22;21290;50.158;8.658;2022-12-19T11:46:35;1.60;99.90
35111;DHT22;21290;50.158;8.658;2022-12-19T11:51:38;1.60;99.90
35111;DHT22;21290;50.158;8.658;2022-12-19T11:54:18;1.60;99.90
35111;DHT22;21290;50.158;8.658;2022-12-19T11:56:46;1.60;99.90
35111;DHT22;21290;50.158;8.658;2022-12-19T11:59:17;1.60;99.90
35111;DHT22;21290;50.158;8.658;2022-12-19T12:01:46;1.70;99.90
35111;DHT22;21290;50.158;8.658;2022-12-19T12:06:51;1.70;99.90
35111;DHT22;21290;50.158;8.658;2022-12-19T12:09:22;1.70;99.90
35111;DHT22;21290;50.158;8.658;2022-12-19T12:15:08;1.80;99.90
35111;DHT22;21290;50.158;8.658;2022-12-19T12:35:54;1.60;99.90
35111;DHT22;21290;50.158;8.658;2022-12-19T12:41:41;1.60;99.90
35111;DHT22;21290;50.158;8.658;2022-12-19T12:44:29;1.60;99.90
35111;DHT22;21290;50.158;8.658;2022-12-19T12:47:19;1.60;99.90
35111;DHT22;21290;50.158;8.658;2022-12-19T12:52:26;1.60;99.90
35111;DHT22;21290;50.158;8.658;2022-12-19T12:54:55;1.60;99.90
35111;DHT22;21290;50.158;8.658;2022-12-19T13:00:13;1.60;99.90
35111;DHT22;21290;50.158;8.658;2022-12-19T13:02:41;1.60;99.90
35111;DHT22;21290;50.158;8.658;2022-12-19T13:05:24;1.60;99.90
35111;DHT22;21290;50.158;8.658;2022-12-19T13:07:55;1.60;99.90
35111;DHT22;21290;50.158;8.658;2022-12-19T13:10:28;1.60;99.90
35111;DHT22;21290;50.158;8.658;2022-12-19T13:30:26;1.90;99.90
35111;DHT22;21290;50.158;8.658;2022-12-19T13:41:02;2.00;99.90
35111;DHT22;21290;50.158;8.658;2022-12-19T13:43:54;2.00;99.90
35111;DHT22;21290;50.158;8.658;2022-12-19T13:49:14;2.00;99.90
35111;DHT22;21290;50.158;8.658;2022-12-19T13:51:46;2.00;99.90
35111;DHT22;21290;50.158;8.658;2022-12-19T13:54:17;2.00;99.90
35111;DHT22;21290;50.158;8.658;2022-12-19T13:56:43;2.00;99.90
35111;DHT22;21290;50.158;8.658;2022-12-19T13:59:10;2.00;99.90
35111;DHT22;21290;50.158;8.658;2022-12-19T14:01:37;2.00;99.90
35111;DHT22;21290;50.158;8.658;2022-12-19T14:04:07;2.00;99.90
35111;DHT22;21290;50.158;8.658;2022-12-19T14:06:38;2.00;99.90
35111;DHT22;21290;50.158;8.658;2022-12-19T14:09:05;1.90;99.90
35111;DHT22;21290;50.158;8.658;2022-12-19T14:11:53;1.90;99.90
35111;DHT22;21290;50.158;8.658;2022-12-19T14:14:49;1.90;99.90
35111;DHT22;21290;50.158;8.658;2022-12-19T14:17:39;2.00;99.90
35111;DHT22;21290;50.158;8.658;2022-12-19T14:20:25;1.90;99.90
35111;DHT22;21290;50.158;8.658;2022-12-19T14:23:11;1.90;99.90
35111;DHT22;21290;50.158;8.658;2022-12-19T14:25:48;1.90;99.90
35111;DHT22;21290;50.158;8.658;2022-12-19T14:28:54;1.90;99.90
35111;DHT22;21290;50.158;8.658;2022-12-19T14:31:22;1.90;99.90
35111;DHT22;21290;50.158;8.658;2022-12-19T14:33:49;1.90;99.90
35111;DHT22;21290;50.158;8.658;2022-12-19T14:36:37;1.90;99.90
35111;DHT22;21290;50.158;8.658;2022-12-19T14:39:05;1.90;99.90
35111;DHT22;21290;50.158;8.658;2022-12-19T14:41:52;1.90;99.90
35111;DHT22;21290;50.158;8.658;2022-12-19T14:44:51;1.90;99.90
35111;DHT22;21290;50.158;8.658;2022-12-19T14:47:39;1.90;99.90
35111;DHT22;21290;50.158;8.658;2022-12-19T14:50:31;1.90;99.90
35111;DHT22;21290;50.158;8.658;2022-12-19T14:53:18;1.80;99.90
35111;DHT22;21290;50.158;8.658;2022-12-19T14:56:09;1.90;99.90
35111;DHT22;21290;50.158;8.658;2022-12-19T14:58:57;1.80;99.90
35111;DHT22;21290;50.158;8.658;2022-12-19T15:01:27;1.80;99.90
35111;DHT22;21290;50.158;8.658;2022-12-19T15:03:56;1.70;99.90
35111;DHT22;21290;50.158;8.658;2022-12-19T15:06:43;1.80;99.90
35111;DHT22;21290;50.158;8.658;2022-12-19T15:09:32;1.70;99.90
35111;DHT22;21290;50.158;8.658;2022-12-19T15:12:25;1.70;99.90
35111;DHT22;21290;50.158;8.658;2022-12-19T15:20:45;1.50;99.90
35111;DHT22;21290;50.158;8.658;2022-12-19T15:23:12;1.50;99.90
35111;DHT22;21290;50.158;8.658;2022-12-19T15:25:47;1.40;99.90
35111;DHT22;21290;50.158;8.658;2022-12-19T15:28:39;1.40;99.90
35111;DHT22;21290;50.158;8.658;2022-12-19T15:31:11;1.40;99.90
35111;DHT22;21290;50.158;8.658;2022-12-19T15:33:39;1.30;99.90
35111;DHT22;21290;50.158;8.658;2022-12-19T15:36:25;1.30;99.90
35111;DHT22;21290;50.158;8.658;2022-12-19T15:38:52;1.20;99.90
35111;DHT22;21290;50.158;8.658;2022-12-19T15:41:20;1.20;99.90
35111;DHT22;21290;50.158;8.658;2022-12-19T15:43:47;1.20;99.90
35111;DHT22;21290;50.158;8.658;2022-12-19T15:46:31;1.10;99.90
35111;DHT22;21290;50.158;8.658;2022-12-19T15:48:58;1.20;99.90
35111;DHT22;21290;50.158;8.658;2022-12-19T15:51:24;1.20;99.90
35111;DHT22;21290;50.158;8.658;2022-12-19T15:53:51;1.10;99.90
35111;DHT22;21290;50.158;8.658;2022-12-19T15:56:25;1.10;99.90
35111;DHT22;21290;50.158;8.658;2022-12-19T15:58:52;1.10;99.90
35111;DHT22;21290;50.158;8.658;2022-12-19T16:01:19;1.10;99.90
35111;DHT22;21290;50.158;8.658;2022-12-19T16:03:47;1.10;99.90
35111;DHT22;21290;50.158;8.658;2022-12-19T16:06:14;1.00;99.90
35111;DHT22;21290;50.158;8.658;2022-12-19T16:08:43;1.00;99.90
35111;DHT22;21290;50.158;8.658;2022-12-19T16:11:20;1.00;99.90
35111;DHT22;21290;50.158;8.658;2022-12-19T16:13:51;1.00;99.90
35111;DHT22;21290;50.158;8.658;2022-12-19T16:16:19;1.00;99.90
35111;DHT22;21290;50.158;8.658;2022-12-19T16:18:46;0.90;99.90
35111;DHT22;21290;50.158;8.658;2022-12-19T16:21:20;0.90;99.90
35111;DHT22;21290;50.158;8.658;2022-12-19T16:23:56;0.90;99.90
35111;DHT22;21290;50.158;8.658;2022-12-19T16:26:26;0.90;99.90
35111;DHT22;21290;50.158;8.658;2022-12-19T16:28:54;0.90;99.90
35111;DHT22;21290;50.158;8.658;2022-12-19T16:31:22;0.80;99.90
35111;DHT22;21290;50.158;8.658;2022-12-19T16:33:49;0.80;99.90
35111;DHT22;21290;50.158;8.658;2022-12-19T16:36:15;0.80;99.90
35111;DHT22;21290;50.158;8.658;2022-12-19T16:38:42;0.80;99.90
35111;DHT22;21290;50.158;8.658;2022-12-19T16:41:18;0.80;99.90
35111;DHT22;21290;50.158;8.658;2022-12-19T16:43:46;0.90;99.90
35111;DHT22;21290;50.158;8.658;2022-12-19T16:46:16;0.90;99.90
35111;DHT22;21290;50.158;8.658;2022-12-19T16:48:44;0.90;99.90
35111;DHT22;21290;50.158;8.658;2022-12-19T16:51:18;0.90;99.90
35111;DHT22;21290;50.158;8.658;2022-12-19T16:53:46;0.80;99.90
35111;DHT22;21290;50.158;8.658;2022-12-19T16:56:23;0.80;99.90
35111;DHT22;21290;50.158;8.658;2022-12-19T16:58:50;0.80;99.90
35111;DHT22;21290;50.158;8.658;2022-12-19T17:01:17;0.80;99.90
35111;DHT22;21290;50.158;8.658;2022-12-19T17:03:44;0.80;99.90
35111;DHT22;21290;50.158;8.658;2022-12-19T17:06:12;0.80;99.90
35111;DHT22;21290;50.158;8.658;2022-12-19T17:08:39;0.80;99.90
35111;DHT22;21290;50.158;8.658;2022-12-19T17:11:10;0.80;99.90
35111;DHT22;21290;50.158;8.658;2022-12-19T17:13:38;0.80;99.90
35111;DHT22;21290;50.158;8.658;2022-12-19T17:16:05;0.80;99.90
35111;DHT22;21290;50.158;8.658;2022-12-19T17:18:32;0.70;99.90
35111;DHT22;21290;50.158;8.658;2022-12-19T17:20:59;0.70;99.90
35111;DHT22;21290;50.158;8.658;2022-12-19T17:23:27;0.70;99.90
35111;DHT22;21290;50.158;8.658;2022-12-19T17:25:55;0.70;99.90
35111;DHT22;21290;50.158;8.658;2022-12-19T17:28:21;0.70;99.90
35111;DHT22;21290;50.158;8.658;2022-12-19T17:30:49;0.70;99.90
35111;DHT22;21290;50.158;8.658;2022-12-19T17:33:17;0.70;99.90
35111;DHT22;21290;50.158;8.658;2022-12-19T17:35:44;0.80;99.90
35111;DHT22;21290;50.158;8.658;2022-12-19T17:38:12;0.80;99.90
35111;DHT22;21290;50.158;8.658;2022-12-19T17:40:39;0.80;99.90
35111;DHT22;21290;50.158;8.658;2022-12-19T17:43:08;0.90;99.90
35111;DHT22;21290;50.158;8.658;2022-12-19T17:45:35;1.00;99.90
35111;DHT22;21290;50.158;8.658;2022-12-19T17:48:03;1.00;99.90
35111;DHT22;21290;50.158;8.658;2022-12-19T17:50:36;1.00;99.90
35111;DHT22;21290;50.158;8.658;2022-12-19T17:53:03;1.00;99.90
35111;DHT22;21290;50.158;8.658;2022-12-19T17:55:30;1.10;99.90